sensor_id;sensor_type;location;lat;lon;timestamp;pressure;altitude;pressure_sealevel;temperature;humidity
73063;BME280;61230;46.328;19.972;2023-05-01T00:01:18;100770.66;;;10.79;82.25
73063;BME280;61230;46.328;19.972;2023-05-01T00:03:46;100767.34;;;10.77;82.27
73063;BME280;61230;46.328;19.972;2023-05-01T00:06:14;100726.38;;;10.44;82.71
73063;BME280;61230;46.328;19.972;2023-05-01T00:08:41;100772.81;;;10.64;83.22
73063;BME280;61230;46.328;19.972;2023-05-01T00:11:09;100765.66;;;10.66;83.02
73063;BME280;61230;46.328;19.972;2023-05-01T00:13:38;100767.84;;;10.61;83.44
73063;BME280;61230;46.328;19.972;2023-05-01T00:16:10;100761.88;;;10.59;83.69
73063;BME280;61230;46.328;19.972;2023-05-01T00:18:38;100701.34;;;10.19;83.61
73063;BME280;61230;46.328;19.972;2023-05-01T00:21:06;100765.87;;;10.54;83.92
73063;BME280;61230;46.328;19.972;2023-05-01T00:23:33;100769.34;;;10.54;84.11
73063;BME280;61230;46.328;19.972;2023-05-01T00:26:01;100766.97;;;10.51;84.31
73063;BME280;61230;46.328;19.972;2023-05-01T00:28:29;100762.13;;;10.47;84.47
73063;BME280;61230;46.328;19.972;2023-05-01T00:30:57;100762.94;;;10.47;84.58
73063;BME280;61230;46.328;19.972;2023-05-01T00:33:25;100713.78;;;10.17;84.49
73063;BME280;61230;46.328;19.972;2023-05-01T00:35:52;100756.97;;;10.45;84.59
73063;BME280;61230;46.328;19.972;2023-05-01T00:38:19;100758.75;;;10.45;84.60
73063;BME280;61230;46.328;19.972;2023-05-01T00:40:47;100760.00;;;10.41;84.75
73063;BME280;61230;46.328;19.972;2023-05-01T00:43:15;100765.63;;;10.36;85.00
73063;BME280;61230;46.328;19.972;2023-05-01T00:45:43;100763.31;;;10.33;85.23
73063;BME280;61230;46.328;19.972;2023-05-01T00:48:13;100765.94;;;10.33;85.23
73063;BME280;61230;46.328;19.972;2023-05-01T00:50:42;100777.16;;;10.35;85.12
73063;BME280;61230;46.328;19.972;2023-05-01T00:53:10;100766.72;;;10.33;85.17
73063;BME280;61230;46.328;19.972;2023-05-01T00:55:40;100767.56;;;10.34;85.12
73063;BME280;61230;46.328;19.972;2023-05-01T00:58:09;100722.13;;;10.02;85.32
73063;BME280;61230;46.328;19.972;2023-05-01T01:00:37;100769.50;;;10.32;85.29
73063;BME280;61230;46.328;19.972;2023-05-01T01:03:05;100771.56;;;10.28;85.50
73063;BME280;61230;46.328;19.972;2023-05-01T01:05:39;100769.88;;;10.27;85.70
73063;BME280;61230;46.328;19.972;2023-05-01T01:11:38;100780.47;;;10.16;86.53
73063;BME280;61230;46.328;19.972;2023-05-01T01:16:53;100787.19;;;10.09;86.79
73063;BME280;61230;46.328;19.972;2023-05-01T01:22:11;100783.78;;;9.98;87.29
73063;BME280;61230;46.328;19.972;2023-05-01T01:35:54;100768.66;;;9.90;86.06
73063;BME280;61230;46.328;19.972;2023-05-01T01:38:31;100773.19;;;9.88;85.80
73063;BME280;61230;46.328;19.972;2023-05-01T01:41:33;100724.41;;;9.54;85.61
73063;BME280;61230;46.328;19.972;2023-05-01T01:44:03;100772.75;;;9.83;84.99
73063;BME280;61230;46.328;19.972;2023-05-01T01:46:36;100777.75;;;9.86;84.46
73063;BME280;61230;46.328;19.972;2023-05-01T01:49:08;100777.91;;;9.85;84.03
73063;BME280;61230;46.328;19.972;2023-05-01T01:51:39;100779.19;;;9.90;83.49
73063;BME280;61230;46.328;19.972;2023-05-01T01:54:10;100773.19;;;9.88;83.25
73063;BME280;61230;46.328;19.972;2023-05-01T01:56:40;100770.13;;;9.83;83.30
73063;BME280;61230;46.328;19.972;2023-05-01T01:59:09;100768.94;;;9.87;82.63
73063;BME280;61230;46.328;19.972;2023-05-01T02:01:39;100771.56;;;9.87;82.40
73063;BME280;61230;46.328;19.972;2023-05-01T02:04:10;100730.38;;;9.56;82.15
73063;BME280;61230;46.328;19.972;2023-05-01T02:06:39;100780.91;;;9.80;82.39
73063;BME280;61230;46.328;19.972;2023-05-01T02:09:08;100771.72;;;9.74;82.18
73063;BME280;61230;46.328;19.972;2023-05-01T02:11:38;100781.53;;;9.72;82.41
73063;BME280;61230;46.328;19.972;2023-05-01T02:14:08;100776.97;;;9.74;81.91
73063;BME280;61230;46.328;19.972;2023-05-01T02:16:38;100781.66;;;9.71;81.81
73063;BME280;61230;46.328;19.972;2023-05-01T02:19:07;100776.53;;;9.69;81.60
73063;BME280;61230;46.328;19.972;2023-05-01T02:21:36;100775.84;;;9.67;81.00
73063;BME280;61230;46.328;19.972;2023-05-01T02:24:06;100781.09;;;9.67;80.63
73063;BME280;61230;46.328;19.972;2023-05-01T02:26:40;100782.97;;;9.65;80.74
73063;BME280;61230;46.328;19.972;2023-05-01T02:29:09;100778.72;;;9.64;80.80
73063;BME280;61230;46.328;19.972;2023-05-01T02:31:37;100753.03;;;9.36;81.04
73063;BME280;61230;46.328;19.972;2023-05-01T02:34:05;100787.13;;;9.47;81.31
73063;BME280;61230;46.328;19.972;2023-05-01T02:36:32;100785.69;;;9.43;81.54
73063;BME280;61230;46.328;19.972;2023-05-01T02:39:01;100765.09;;;9.28;81.54
73063;BME280;61230;46.328;19.972;2023-05-01T02:41:28;100794.06;;;9.37;81.69
73063;BME280;61230;46.328;19.972;2023-05-01T02:44:03;100791.81;;;9.33;81.79
73063;BME280;61230;46.328;19.972;2023-05-01T02:46:34;100797.44;;;9.28;82.12
73063;BME280;61230;46.328;19.972;2023-05-01T02:49:04;100806.53;;;9.24;82.36
73063;BME280;61230;46.328;19.972;2023-05-01T02:51:34;100805.31;;;9.17;82.71
73063;BME280;61230;46.328;19.972;2023-05-01T02:54:03;100800.94;;;9.06;83.57
73063;BME280;61230;46.328;19.972;2023-05-01T02:56:31;100805.72;;;9.01;83.89
73063;BME280;61230;46.328;19.972;2023-05-01T02:58:59;100747.06;;;8.69;83.92
73063;BME280;61230;46.328;19.972;2023-05-01T03:01:26;100793.47;;;8.91;84.38
73063;BME280;61230;46.328;19.972;2023-05-01T03:03:55;100796.56;;;8.85;84.62
73063;BME280;61230;46.328;19.972;2023-05-01T03:06:22;100802.03;;;8.82;84.77
73063;BME280;61230;46.328;19.972;2023-05-01T03:08:50;100800.38;;;8.81;85.08
73063;BME280;61230;46.328;19.972;2023-05-01T03:11:18;100806.47;;;8.81;84.99
73063;BME280;61230;46.328;19.972;2023-05-01T03:13:46;100808.12;;;8.82;85.08
73063;BME280;61230;46.328;19.972;2023-05-01T03:16:14;100803.69;;;8.83;84.66
73063;BME280;61230;46.328;19.972;2023-05-01T03:18:42;100810.63;;;8.84;84.33
73063;BME280;61230;46.328;19.972;2023-05-01T03:21:09;100803.84;;;8.81;84.13
73063;BME280;61230;46.328;19.972;2023-05-01T03:23:39;100798.34;;;8.84;83.80
73063;BME280;61230;46.328;19.972;2023-05-01T03:26:08;100794.88;;;8.84;83.74
73063;BME280;61230;46.328;19.972;2023-05-01T03:28:35;100791.56;;;8.82;83.92
73063;BME280;61230;46.328;19.972;2023-05-01T03:31:03;100795.34;;;8.78;84.21
73063;BME280;61230;46.328;19.972;2023-05-01T03:33:31;100735.03;;;8.44;84.27
73063;BME280;61230;46.328;19.972;2023-05-01T03:36:00;100792.97;;;8.75;84.42
73063;BME280;61230;46.328;19.972;2023-05-01T03:38:30;100733.88;;;8.48;84.17
73063;BME280;61230;46.328;19.972;2023-05-01T03:41:11;100792.50;;;8.81;84.24
73063;BME280;61230;46.328;19.972;2023-05-01T03:43:42;100783.22;;;8.77;84.46
73063;BME280;61230;46.328;19.972;2023-05-01T03:46:11;100788.78;;;8.83;84.30
73063;BME280;61230;46.328;19.972;2023-05-01T03:48:38;100794.66;;;8.87;84.21
73063;BME280;61230;46.328;19.972;2023-05-01T03:51:06;100750.78;;;8.55;83.90
73063;BME280;61230;46.328;19.972;2023-05-01T03:53:35;100803.81;;;8.92;83.37
73063;BME280;61230;46.328;19.972;2023-05-01T03:56:03;100798.34;;;8.95;82.91
73063;BME280;61230;46.328;19.972;2023-05-01T03:58:31;100804.19;;;8.99;82.89
73063;BME280;61230;46.328;19.972;2023-05-01T04:00:59;100809.19;;;9.02;82.76
73063;BME280;61230;46.328;19.972;2023-05-01T04:03:28;100758.28;;;8.71;82.92
73063;BME280;61230;46.328;19.972;2023-05-01T04:05:56;100800.94;;;9.06;82.80
73063;BME280;61230;46.328;19.972;2023-05-01T04:08:24;100809.66;;;9.07;82.97
73063;BME280;61230;46.328;19.972;2023-05-01T04:10:51;100805.94;;;9.09;82.96
73063;BME280;61230;46.328;19.972;2023-05-01T04:13:19;100805.09;;;9.09;82.94
73063;BME280;61230;46.328;19.972;2023-05-01T04:15:47;100757.31;;;8.83;82.82
73063;BME280;61230;46.328;19.972;2023-05-01T04:18:16;100807.38;;;9.13;82.90
73063;BME280;61230;46.328;19.972;2023-05-01T04:20:43;100802.13;;;9.13;82.66
73063;BME280;61230;46.328;19.972;2023-05-01T04:23:12;100814.16;;;9.27;81.90
73063;BME280;61230;46.328;19.972;2023-05-01T04:25:40;100813.19;;;9.28;81.81
73063;BME280;61230;46.328;19.972;2023-05-01T04:28:11;100815.31;;;9.34;81.19
73063;BME280;61230;46.328;19.972;2023-05-01T04:30:39;100812.34;;;9.39;80.70
73063;BME280;61230;46.328;19.972;2023-05-01T04:33:07;100810.28;;;9.42;80.40
73063;BME280;61230;46.328;19.972;2023-05-01T04:35:38;100818.41;;;9.50;79.42
73063;BME280;61230;46.328;19.972;2023-05-01T04:38:07;100821.59;;;9.54;78.85
73063;BME280;61230;46.328;19.972;2023-05-01T04:40:36;100821.09;;;9.60;78.61
73063;BME280;61230;46.328;19.972;2023-05-01T04:43:04;100823.94;;;9.68;77.82
73063;BME280;61230;46.328;19.972;2023-05-01T04:45:32;100819.75;;;9.65;77.09
73063;BME280;61230;46.328;19.972;2023-05-01T04:48:00;100825.47;;;9.81;77.09
73063;BME280;61230;46.328;19.972;2023-05-01T04:50:27;100823.28;;;9.87;76.43
73063;BME280;61230;46.328;19.972;2023-05-01T04:52:55;100822.78;;;9.93;75.80
73063;BME280;61230;46.328;19.972;2023-05-01T04:55:23;100824.31;;;9.95;75.08
73063;BME280;61230;46.328;19.972;2023-05-01T04:57:52;100820.78;;;10.06;74.70
73063;BME280;61230;46.328;19.972;2023-05-01T05:00:20;100775.87;;;9.77;74.06
73063;BME280;61230;46.328;19.972;2023-05-01T05:02:49;100827.00;;;10.16;73.57
73063;BME280;61230;46.328;19.972;2023-05-01T05:05:17;100828.06;;;10.13;73.47
73063;BME280;61230;46.328;19.972;2023-05-01T05:07:45;100840.53;;;10.32;72.82
73063;BME280;61230;46.328;19.972;2023-05-01T05:10:18;100835.72;;;10.37;72.31
73063;BME280;61230;46.328;19.972;2023-05-01T05:12:47;100838.25;;;10.48;71.17
73063;BME280;61230;46.328;19.972;2023-05-01T05:15:14;100835.31;;;10.42;70.60
73063;BME280;61230;46.328;19.972;2023-05-01T05:17:42;100832.66;;;10.62;69.56
73063;BME280;61230;46.328;19.972;2023-05-01T05:20:12;100788.63;;;10.34;69.36
73063;BME280;61230;46.328;19.972;2023-05-01T05:22:40;100844.25;;;10.80;69.58
73063;BME280;61230;46.328;19.972;2023-05-01T05:25:09;100843.69;;;10.77;67.83
73063;BME280;61230;46.328;19.972;2023-05-01T05:27:37;100832.94;;;10.89;67.84
73063;BME280;61230;46.328;19.972;2023-05-01T05:30:05;100835.84;;;10.96;67.02
73063;BME280;61230;46.328;19.972;2023-05-01T05:32:33;100786.09;;;10.83;66.50
73063;BME280;61230;46.328;19.972;2023-05-01T05:35:02;100837.06;;;11.22;65.85
73063;BME280;61230;46.328;19.972;2023-05-01T05:37:29;100837.37;;;11.29;65.30
73063;BME280;61230;46.328;19.972;2023-05-01T05:39:57;100845.28;;;11.29;64.37
73063;BME280;61230;46.328;19.972;2023-05-01T05:42:25;100798.63;;;11.01;64.48
73063;BME280;61230;46.328;19.972;2023-05-01T05:44:53;100845.16;;;11.40;64.51
73063;BME280;61230;46.328;19.972;2023-05-01T05:47:21;100855.69;;;11.49;64.58
73063;BME280;61230;46.328;19.972;2023-05-01T05:49:49;100852.25;;;11.59;64.01
73063;BME280;61230;46.328;19.972;2023-05-01T05:52:16;100852.97;;;11.61;63.97
73063;BME280;61230;46.328;19.972;2023-05-01T05:54:44;100848.09;;;11.56;64.03
73063;BME280;61230;46.328;19.972;2023-05-01T05:57:12;100856.84;;;11.66;63.53
73063;BME280;61230;46.328;19.972;2023-05-01T05:59:40;100859.66;;;11.74;63.62
73063;BME280;61230;46.328;19.972;2023-05-01T06:02:08;100852.28;;;11.78;63.63
73063;BME280;61230;46.328;19.972;2023-05-01T06:04:36;100802.16;;;11.59;63.23
73063;BME280;61230;46.328;19.972;2023-05-01T06:07:04;100851.34;;;11.98;63.70
73063;BME280;61230;46.328;19.972;2023-05-01T06:09:32;100858.81;;;12.12;63.48
73063;BME280;61230;46.328;19.972;2023-05-01T06:12:00;100850.22;;;12.20;63.17
73063;BME280;61230;46.328;19.972;2023-05-01T06:14:29;100863.81;;;12.15;63.65
73063;BME280;61230;46.328;19.972;2023-05-01T06:16:56;100853.56;;;12.22;63.30
73063;BME280;61230;46.328;19.972;2023-05-01T06:19:24;100854.94;;;12.26;63.43
73063;BME280;61230;46.328;19.972;2023-05-01T06:21:53;100857.97;;;12.40;63.17
73063;BME280;61230;46.328;19.972;2023-05-01T06:24:20;100861.00;;;12.55;62.65
73063;BME280;61230;46.328;19.972;2023-05-01T06:26:48;100864.06;;;12.50;63.23
73063;BME280;61230;46.328;19.972;2023-05-01T06:29:16;100812.41;;;12.38;62.89
73063;BME280;61230;46.328;19.972;2023-05-01T06:31:43;100855.97;;;12.71;62.60
73063;BME280;61230;46.328;19.972;2023-05-01T06:34:12;100859.56;;;12.80;62.71
73063;BME280;61230;46.328;19.972;2023-05-01T06:36:42;100856.38;;;13.03;62.78
73063;BME280;61230;46.328;19.972;2023-05-01T06:39:10;100865.50;;;12.91;62.49
73063;BME280;61230;46.328;19.972;2023-05-01T06:41:38;100866.28;;;13.11;62.49
73063;BME280;61230;46.328;19.972;2023-05-01T06:44:05;100864.94;;;13.24;62.17
73063;BME280;61230;46.328;19.972;2023-05-01T06:46:33;100868.22;;;13.09;62.08
73063;BME280;61230;46.328;19.972;2023-05-01T06:49:01;100823.28;;;13.09;62.40
73063;BME280;61230;46.328;19.972;2023-05-01T06:51:28;100875.72;;;13.41;61.88
73063;BME280;61230;46.328;19.972;2023-05-01T06:53:57;100876.09;;;13.46;61.78
73063;BME280;61230;46.328;19.972;2023-05-01T06:56:25;100877.22;;;13.43;61.33
73063;BME280;61230;46.328;19.972;2023-05-01T06:58:53;100827.37;;;13.48;61.11
73063;BME280;61230;46.328;19.972;2023-05-01T07:01:20;100871.00;;;13.79;60.53
73063;BME280;61230;46.328;19.972;2023-05-01T07:03:49;100882.78;;;13.85;60.59
73063;BME280;61230;46.328;19.972;2023-05-01T07:06:17;100871.91;;;14.06;59.78
73063;BME280;61230;46.328;19.972;2023-05-01T07:08:44;100870.28;;;14.05;59.85
73063;BME280;61230;46.328;19.972;2023-05-01T07:11:12;100867.37;;;14.33;59.09
73063;BME280;61230;46.328;19.972;2023-05-01T07:13:39;100847.94;;;14.43;58.71
73063;BME280;61230;46.328;19.972;2023-05-01T07:16:07;100869.59;;;14.64;57.92
73063;BME280;61230;46.328;19.972;2023-05-01T07:18:35;100868.41;;;14.84;57.88
73063;BME280;61230;46.328;19.972;2023-05-01T07:21:04;100865.28;;;14.63;58.35
73063;BME280;61230;46.328;19.972;2023-05-01T07:23:31;100849.69;;;14.85;57.86
73063;BME280;61230;46.328;19.972;2023-05-01T07:25:59;100820.91;;;14.65;57.66
73063;BME280;61230;46.328;19.972;2023-05-01T07:28:27;100866.09;;;14.89;57.89
73063;BME280;61230;46.328;19.972;2023-05-01T07:30:54;100828.94;;;14.47;57.92
73063;BME280;61230;46.328;19.972;2023-05-01T07:33:22;100871.69;;;14.78;57.74
73063;BME280;61230;46.328;19.972;2023-05-01T07:35:52;100857.81;;;14.84;58.11
73063;BME280;61230;46.328;19.972;2023-05-01T07:38:20;100867.72;;;15.16;57.53
73063;BME280;61230;46.328;19.972;2023-05-01T07:40:51;100829.31;;;15.28;56.84
73063;BME280;61230;46.328;19.972;2023-05-01T07:43:19;100870.75;;;15.71;56.44
73063;BME280;61230;46.328;19.972;2023-05-01T07:45:57;100864.78;;;15.69;55.91
73063;BME280;61230;46.328;19.972;2023-05-01T07:48:27;100875.72;;;15.66;55.83
73063;BME280;61230;46.328;19.972;2023-05-01T07:50:55;100867.59;;;15.75;56.25
73063;BME280;61230;46.328;19.972;2023-05-01T07:53:23;100828.75;;;15.50;56.20
73063;BME280;61230;46.328;19.972;2023-05-01T07:55:51;100873.09;;;15.74;56.15
73063;BME280;61230;46.328;19.972;2023-05-01T07:58:18;100872.13;;;15.91;55.89
73063;BME280;61230;46.328;19.972;2023-05-01T08:00:46;100872.13;;;15.99;55.43
73063;BME280;61230;46.328;19.972;2023-05-01T08:03:14;100827.66;;;16.01;54.84
73063;BME280;61230;46.328;19.972;2023-05-01T08:05:42;100870.78;;;16.43;53.92
73063;BME280;61230;46.328;19.972;2023-05-01T08:08:10;100872.13;;;16.47;53.71
73063;BME280;61230;46.328;19.972;2023-05-01T08:10:39;100863.66;;;16.68;53.33
73063;BME280;61230;46.328;19.972;2023-05-01T08:13:07;100872.59;;;16.91;53.34
73063;BME280;61230;46.328;19.972;2023-05-01T08:15:34;100855.81;;;16.91;52.92
73063;BME280;61230;46.328;19.972;2023-05-01T08:18:05;100832.00;;;17.05;52.51
73063;BME280;61230;46.328;19.972;2023-05-01T08:20:34;100876.56;;;17.34;52.79
73063;BME280;61230;46.328;19.972;2023-05-01T08:23:02;100872.41;;;17.32;52.71
73063;BME280;61230;46.328;19.972;2023-05-01T08:25:30;100866.31;;;17.23;52.92
73063;BME280;61230;46.328;19.972;2023-05-01T08:27:58;100876.19;;;17.06;52.53
73063;BME280;61230;46.328;19.972;2023-05-01T08:30:26;100821.44;;;17.28;52.30
73063;BME280;61230;46.328;19.972;2023-05-01T08:32:54;100867.59;;;17.97;51.43
73063;BME280;61230;46.328;19.972;2023-05-01T08:35:22;100860.56;;;18.04;51.44
73063;BME280;61230;46.328;19.972;2023-05-01T08:37:49;100856.91;;;18.19;50.82
73063;BME280;61230;46.328;19.972;2023-05-01T08:40:17;100869.25;;;18.20;50.71
73063;BME280;61230;46.328;19.972;2023-05-01T08:42:45;100825.28;;;17.48;50.42
73063;BME280;61230;46.328;19.972;2023-05-01T08:45:13;100864.81;;;17.90;50.67
73063;BME280;61230;46.328;19.972;2023-05-01T08:47:42;100864.91;;;18.19;50.50
73063;BME280;61230;46.328;19.972;2023-05-01T08:50:12;100865.59;;;18.73;49.94
73063;BME280;61230;46.328;19.972;2023-05-01T08:52:41;100866.16;;;18.09;50.25
73063;BME280;61230;46.328;19.972;2023-05-01T08:55:13;100869.12;;;18.14;50.12
73063;BME280;61230;46.328;19.972;2023-05-01T08:57:45;100868.09;;;18.60;49.98
73063;BME280;61230;46.328;19.972;2023-05-01T09:00:17;100820.03;;;18.83;49.11
73063;BME280;61230;46.328;19.972;2023-05-01T09:02:48;100865.16;;;18.99;48.78
73063;BME280;61230;46.328;19.972;2023-05-01T09:05:17;100865.03;;;19.36;47.93
73063;BME280;61230;46.328;19.972;2023-05-01T09:07:46;100866.53;;;19.39;47.93
73063;BME280;61230;46.328;19.972;2023-05-01T09:10:15;100868.28;;;19.17;48.43
73063;BME280;61230;46.328;19.972;2023-05-01T09:12:50;100863.94;;;19.31;47.31
73063;BME280;61230;46.328;19.972;2023-05-01T09:15:19;100862.72;;;19.63;46.86
73063;BME280;61230;46.328;19.972;2023-05-01T09:17:48;100863.06;;;19.95;46.94
73063;BME280;61230;46.328;19.972;2023-05-01T09:20:18;100820.37;;;19.24;47.30
73063;BME280;61230;46.328;19.972;2023-05-01T09:22:46;100815.38;;;19.71;46.44
73063;BME280;61230;46.328;19.972;2023-05-01T09:25:14;100856.31;;;19.99;46.12
73063;BME280;61230;46.328;19.972;2023-05-01T09:27:43;100851.97;;;19.56;46.01
73063;BME280;61230;46.328;19.972;2023-05-01T09:30:32;100863.84;;;19.89;45.82
73063;BME280;61230;46.328;19.972;2023-05-01T09:33:13;100838.94;;;19.68;45.30
73063;BME280;61230;46.328;19.972;2023-05-01T09:35:54;100804.19;;;19.82;45.07
73063;BME280;61230;46.328;19.972;2023-05-01T09:38:25;100844.53;;;19.52;45.74
73063;BME280;61230;46.328;19.972;2023-05-01T09:40:55;100849.00;;;20.29;44.88
73063;BME280;61230;46.328;19.972;2023-05-01T09:43:25;100844.06;;;20.54;43.70
73063;BME280;61230;46.328;19.972;2023-05-01T09:46:03;100842.91;;;20.63;43.86
73063;BME280;61230;46.328;19.972;2023-05-01T09:48:33;100848.25;;;20.35;44.33
73063;BME280;61230;46.328;19.972;2023-05-01T09:51:31;100835.56;;;20.23;45.44
73063;BME280;61230;46.328;19.972;2023-05-01T09:54:01;100835.47;;;20.31;44.96
73063;BME280;61230;46.328;19.972;2023-05-01T09:56:32;100838.81;;;20.18;45.10
73063;BME280;61230;46.328;19.972;2023-05-01T09:59:15;100841.44;;;20.12;44.70
73063;BME280;61230;46.328;19.972;2023-05-01T10:01:44;100841.75;;;20.02;45.02
73063;BME280;61230;46.328;19.972;2023-05-01T10:04:13;100821.00;;;20.81;43.61
73063;BME280;61230;46.328;19.972;2023-05-01T10:06:41;100829.69;;;20.89;42.82
73063;BME280;61230;46.328;19.972;2023-05-01T10:09:09;100835.50;;;20.99;43.04
73063;BME280;61230;46.328;19.972;2023-05-01T10:11:48;100786.97;;;20.68;42.43
73063;BME280;61230;46.328;19.972;2023-05-01T10:14:18;100825.03;;;21.04;42.39
73063;BME280;61230;46.328;19.972;2023-05-01T10:16:46;100818.41;;;20.94;42.11
73063;BME280;61230;46.328;19.972;2023-05-01T10:19:16;100820.09;;;21.55;41.72
73063;BME280;61230;46.328;19.972;2023-05-01T10:21:44;100825.28;;;21.63;40.66
73063;BME280;61230;46.328;19.972;2023-05-01T10:24:12;100825.19;;;20.96;42.40
73063;BME280;61230;46.328;19.972;2023-05-01T10:26:41;100826.63;;;21.33;41.80
73063;BME280;61230;46.328;19.972;2023-05-01T10:29:11;100777.19;;;21.29;41.16
73063;BME280;61230;46.328;19.972;2023-05-01T10:31:39;100782.44;;;21.03;41.23
73063;BME280;61230;46.328;19.972;2023-05-01T10:34:10;100774.97;;;21.39;40.66
73063;BME280;61230;46.328;19.972;2023-05-01T10:36:46;100803.63;;;21.45;40.50
73063;BME280;61230;46.328;19.972;2023-05-01T10:39:31;100815.19;;;21.72;39.38
73063;BME280;61230;46.328;19.972;2023-05-01T10:42:06;100807.84;;;22.20;38.99
73063;BME280;61230;46.328;19.972;2023-05-01T10:44:37;100804.94;;;22.48;39.00
73063;BME280;61230;46.328;19.972;2023-05-01T10:50:11;100803.09;;;22.15;39.04
73063;BME280;61230;46.328;19.972;2023-05-01T10:55:39;100795.88;;;21.90;39.36
73063;BME280;61230;46.328;19.972;2023-05-01T10:58:13;100792.56;;;22.40;38.45
73063;BME280;61230;46.328;19.972;2023-05-01T11:00:41;100787.19;;;22.40;37.60
73063;BME280;61230;46.328;19.972;2023-05-01T11:08:37;100759.47;;;22.79;36.26
73063;BME280;61230;46.328;19.972;2023-05-01T11:13:58;100789.16;;;22.97;35.47
73063;BME280;61230;46.328;19.972;2023-05-01T11:19:05;100781.34;;;22.82;35.71
73063;BME280;61230;46.328;19.972;2023-05-01T11:21:35;100776.75;;;23.03;35.30
73063;BME280;61230;46.328;19.972;2023-05-01T11:24:04;100767.25;;;23.44;34.90
73063;BME280;61230;46.328;19.972;2023-05-01T11:26:36;100748.16;;;23.21;35.75
73063;BME280;61230;46.328;19.972;2023-05-01T11:29:05;100764.56;;;23.07;36.09
73063;BME280;61230;46.328;19.972;2023-05-01T11:31:33;100760.28;;;23.30;35.37
73063;BME280;61230;46.328;19.972;2023-05-01T11:34:02;100756.41;;;23.26;35.71
73063;BME280;61230;46.328;19.972;2023-05-01T11:36:47;100765.47;;;23.25;36.50
73063;BME280;61230;46.328;19.972;2023-05-01T11:39:18;100756.56;;;23.31;35.24
73063;BME280;61230;46.328;19.972;2023-05-01T11:41:47;100735.97;;;23.57;35.33
73063;BME280;61230;46.328;19.972;2023-05-01T11:44:16;100755.91;;;23.36;34.80
73063;BME280;61230;46.328;19.972;2023-05-01T11:46:43;100757.41;;;23.94;34.55
73063;BME280;61230;46.328;19.972;2023-05-01T11:49:11;100753.78;;;23.82;34.42
73063;BME280;61230;46.328;19.972;2023-05-01T11:51:39;100757.62;;;23.62;35.07
73063;BME280;61230;46.328;19.972;2023-05-01T11:54:08;100756.06;;;23.79;34.21
73063;BME280;61230;46.328;19.972;2023-05-01T11:56:36;100736.34;;;23.91;34.36
73063;BME280;61230;46.328;19.972;2023-05-01T11:59:12;100743.53;;;24.58;34.13
73063;BME280;61230;46.328;19.972;2023-05-01T12:01:46;100723.44;;;24.61;33.44
73063;BME280;61230;46.328;19.972;2023-05-01T12:04:24;100741.38;;;23.50;34.28
73063;BME280;61230;46.328;19.972;2023-05-01T12:06:57;100730.53;;;24.19;33.37
73063;BME280;61230;46.328;19.972;2023-05-01T12:09:25;100734.56;;;24.28;34.35
73063;BME280;61230;46.328;19.972;2023-05-01T12:11:54;100736.38;;;24.10;34.50
73063;BME280;61230;46.328;19.972;2023-05-01T12:14:21;100728.13;;;24.11;33.27
73063;BME280;61230;46.328;19.972;2023-05-01T12:16:51;100726.34;;;24.41;33.03
73063;BME280;61230;46.328;19.972;2023-05-01T12:19:18;100732.31;;;25.16;32.55
73063;BME280;61230;46.328;19.972;2023-05-01T12:21:47;100729.38;;;24.51;33.14
73063;BME280;61230;46.328;19.972;2023-05-01T12:24:17;100726.19;;;24.73;33.58
73063;BME280;61230;46.328;19.972;2023-05-01T12:26:45;100725.47;;;24.66;33.11
73063;BME280;61230;46.328;19.972;2023-05-01T12:29:13;100725.22;;;25.03;33.00
73063;BME280;61230;46.328;19.972;2023-05-01T12:31:48;100688.63;;;25.14;32.24
73063;BME280;61230;46.328;19.972;2023-05-01T12:34:16;100706.41;;;24.67;32.64
73063;BME280;61230;46.328;19.972;2023-05-01T12:36:52;100718.97;;;24.91;32.75
73063;BME280;61230;46.328;19.972;2023-05-01T12:39:21;100713.88;;;25.31;32.36
73063;BME280;61230;46.328;19.972;2023-05-01T12:41:50;100677.66;;;24.79;32.71
73063;BME280;61230;46.328;19.972;2023-05-01T12:44:28;100696.16;;;23.96;33.41
73063;BME280;61230;46.328;19.972;2023-05-01T12:47:06;100702.91;;;24.85;32.77
73063;BME280;61230;46.328;19.972;2023-05-01T12:49:35;100704.19;;;24.82;32.45
73063;BME280;61230;46.328;19.972;2023-05-01T12:52:05;100694.94;;;25.08;32.06
73063;BME280;61230;46.328;19.972;2023-05-01T12:54:35;100703.66;;;25.51;32.14
73063;BME280;61230;46.328;19.972;2023-05-01T12:57:09;100697.56;;;24.96;31.38
73063;BME280;61230;46.328;19.972;2023-05-01T12:59:38;100699.69;;;24.40;32.75
73063;BME280;61230;46.328;19.972;2023-05-01T13:02:08;100694.13;;;24.53;32.85
73063;BME280;61230;46.328;19.972;2023-05-01T13:04:39;100695.03;;;24.65;32.96
73063;BME280;61230;46.328;19.972;2023-05-01T13:07:11;100687.41;;;24.44;32.65
73063;BME280;61230;46.328;19.972;2023-05-01T13:09:53;100697.56;;;24.78;32.72
73063;BME280;61230;46.328;19.972;2023-05-01T13:12:22;100646.72;;;24.88;31.80
73063;BME280;61230;46.328;19.972;2023-05-01T13:14:50;100686.88;;;24.90;31.95
73063;BME280;61230;46.328;19.972;2023-05-01T13:17:29;100679.94;;;25.12;31.91
73063;BME280;61230;46.328;19.972;2023-05-01T13:19:59;100678.78;;;24.90;32.82
73063;BME280;61230;46.328;19.972;2023-05-01T13:22:36;100683.31;;;24.59;33.24
73063;BME280;61230;46.328;19.972;2023-05-01T13:25:14;100661.94;;;24.28;33.34
73063;BME280;61230;46.328;19.972;2023-05-01T13:27:51;100670.22;;;24.81;33.53
73063;BME280;61230;46.328;19.972;2023-05-01T13:30:30;100662.25;;;25.04;32.90
73063;BME280;61230;46.328;19.972;2023-05-01T13:32:58;100659.78;;;25.14;32.52